Alva Dupre — WDG3104 — position and weather

sailwx.info

Track history (hours):
 
Tides and Currents Weather Stations Pressure Air Temp Water Temp Dewpoint Dewpoint Depression Visibility Wind Speed Wind Dir Waves Ship Positions

Alva Dupre

Owner: Dupre Marine Transportation Inc, Houma, LA. More information available from US FCC via Universal Licensing System and Coast Guard Vessel Documentation Center.

Last reported at 2017-Nov-18 13:09 UTC. Time now 2017-Nov-19 03:03 UTC.
Position N 30°04' W 093°42'.

Length 23 m; draft 3.2 m.

Type: . MMSI: 367522540.

Date/timePositionNaut miles runAvg speedWind from/ knotsBaromVisibWave heightAir tempDewpointWater temp
2017-Nov-18 13:09N 30°04' W 093°42'1 5.2
2017-Nov-18 12:53N 30°04' W 093°40'2 5.0
2017-Nov-18 12:28N 30°04' W 093°38'2 4.6
2017-Nov-18 11:59N 30°04' W 093°35'2 4.6
2017-Nov-18 11:30N 30°04' W 093°33'2 4.8
2017-Nov-18 11:00N 30°04' W 093°30'2 4.1
2017-Nov-18 10:30N 30°04' W 093°27'2 4.8
2017-Nov-18 10:00N 30°04' W 093°25'2 4.9
2017-Nov-18 09:30N 30°04' W 093°22'2 4.0
2017-Nov-18 09:00N 30°05' W 093°20'2 3.9
2017-Nov-18 08:30N 30°06' W 093°18'1 2.4
2017-Nov-18 08:00N 30°05' W 093°17'2 3.2
2017-Nov-18 07:30N 30°04' W 093°16'0 0.0
2017-Nov-18 07:00N 30°04' W 093°16'0 0.0
2017-Nov-18 06:30N 30°04' W 093°16'0 0.0
2017-Nov-18 06:00N 30°04' W 093°16'0 0.0
2017-Nov-18 05:30N 30°04' W 093°16'0 0.0
2017-Nov-18 05:00N 30°04' W 093°16'0 0.0
2017-Nov-18 04:30N 30°04' W 093°16'0 0.3
2017-Nov-18 04:00N 30°04' W 093°16'1 2.8
2017-Nov-18 03:30N 30°03' W 093°16'2 4.0
2017-Nov-18 03:00N 30°01' W 093°14'2 3.6
2017-Nov-18 02:30N 29°60' W 093°13'0 0.3
2017-Nov-18 02:00N 29°60' W 093°13'2 3.9
2017-Nov-18 01:30N 29°58' W 093°11'2 4.4
2017-Nov-18 01:00N 29°56' W 093°10'2 4.1
2017-Nov-18 00:30N 29°56' W 093°08'2 4.3
2017-Nov-18 00:00N 29°56' W 093°05'2 4.4
2017-Nov-17 23:30N 29°56' W 093°02'36 4.2
2017-Nov-17 15:01N 29°51' W 092°22'0 3.9
2017-Nov-17 15:00N 29°51' W 092°22'2 4.2
2017-Nov-17 14:30N 29°50' W 092°19'2 3.6
2017-Nov-17 14:00N 29°49' W 092°18'2 4.1
2017-Nov-17 13:30N 29°48' W 092°16'1 1.9
2017-Nov-17 13:00N 29°48' W 092°15'0 0.1
2017-Nov-17 12:30N 29°48' W 092°15'0 0.0
2017-Nov-17 12:00N 29°48' W 092°15'0 0.0
2017-Nov-17 11:30N 29°48' W 092°15'0 0.0
2017-Nov-17 11:00N 29°48' W 092°15'0 0.0
2017-Nov-17 10:30N 29°48' W 092°15'0 0.0
2017-Nov-17 10:00N 29°48' W 092°15'0 0.0
2017-Nov-17 09:30N 29°48' W 092°15'0 0.0
2017-Nov-17 09:00N 29°48' W 092°15'0 0.0
2017-Nov-17 08:30N 29°48' W 092°15'0 0.0
2017-Nov-17 08:00N 29°48' W 092°15'0 0.0
2017-Nov-17 07:30N 29°48' W 092°15'0 0.0
2017-Nov-17 07:00N 29°48' W 092°15'0 0.0
2017-Nov-17 06:30N 29°48' W 092°15'0 0.0
2017-Nov-17 06:00N 29°48' W 092°15'0 0.0
2017-Nov-17 05:30N 29°48' W 092°15'0 0.3
2017-Nov-17 05:00N 29°48' W 092°14'1 1.5
2017-Nov-17 04:30N 29°48' W 092°14'1 2.6
2017-Nov-17 04:00N 29°47' W 092°12'0 0.6
2017-Nov-17 03:30N 29°47' W 092°12'1 2.0
2017-Nov-17 03:00N 29°47' W 092°11'0 0.8
2017-Nov-17 02:30N 29°47' W 092°10'2 4.4
2017-Nov-17 02:00N 29°47' W 092°08'2 4.7
2017-Nov-17 01:30N 29°48' W 092°06'2 4.6
2017-Nov-17 01:00N 29°49' W 092°03'3 5.1
2017-Nov-17 00:30N 29°50' W 092°00'3 5.0
2017-Nov-17 00:00N 29°50' W 091°57'2 4.5
2017-Nov-16 23:30N 29°51' W 091°55'  
Track history (hours):
 
Tides and Currents Weather Stations Pressure Air Temp Water Temp Dewpoint Dewpoint Depression Visibility Wind Speed Wind Dir Waves Ship Positions

Alva Dupre

Owner: Dupre Marine Transportation Inc, Houma, LA. More information available from US FCC via Universal Licensing System and Coast Guard Vessel Documentation Center.

Last reported at 2017-Nov-18 13:09 UTC. Time now 2017-Nov-19 03:03 UTC.
Position N 30°04' W 093°42'.

Length 23 m; draft 3.2 m.

Type: . MMSI: 367522540.

Date/timePositionNaut miles runAvg speedWind from/ knotsBaromVisibWave heightAir tempDewpointWater temp
2017-Nov-18 13:09N 30°04' W 093°42'1 5.2
2017-Nov-18 12:53N 30°04' W 093°40'2 5.0
2017-Nov-18 12:28N 30°04' W 093°38'2 4.6
2017-Nov-18 11:59N 30°04' W 093°35'2 4.6
2017-Nov-18 11:30N 30°04' W 093°33'2 4.8
2017-Nov-18 11:00N 30°04' W 093°30'2 4.1
2017-Nov-18 10:30N 30°04' W 093°27'2 4.8
2017-Nov-18 10:00N 30°04' W 093°25'2 4.9
2017-Nov-18 09:30N 30°04' W 093°22'2 4.0
2017-Nov-18 09:00N 30°05' W 093°20'2 3.9
2017-Nov-18 08:30N 30°06' W 093°18'1 2.4
2017-Nov-18 08:00N 30°05' W 093°17'2 3.2
2017-Nov-18 07:30N 30°04' W 093°16'0 0.0
2017-Nov-18 07:00N 30°04' W 093°16'0 0.0
2017-Nov-18 06:30N 30°04' W 093°16'0 0.0
2017-Nov-18 06:00N 30°04' W 093°16'0 0.0
2017-Nov-18 05:30N 30°04' W 093°16'0 0.0
2017-Nov-18 05:00N 30°04' W 093°16'0 0.0
2017-Nov-18 04:30N 30°04' W 093°16'0 0.3
2017-Nov-18 04:00N 30°04' W 093°16'1 2.8
2017-Nov-18 03:30N 30°03' W 093°16'2 4.0
2017-Nov-18 03:00N 30°01' W 093°14'2 3.6
2017-Nov-18 02:30N 29°60' W 093°13'0 0.3
2017-Nov-18 02:00N 29°60' W 093°13'2 3.9
2017-Nov-18 01:30N 29°58' W 093°11'2 4.4
2017-Nov-18 01:00N 29°56' W 093°10'2 4.1
2017-Nov-18 00:30N 29°56' W 093°08'2 4.3
2017-Nov-18 00:00N 29°56' W 093°05'2 4.4
2017-Nov-17 23:30N 29°56' W 093°02'36 4.2
2017-Nov-17 15:01N 29°51' W 092°22'0 3.9
2017-Nov-17 15:00N 29°51' W 092°22'2 4.2
2017-Nov-17 14:30N 29°50' W 092°19'2 3.6
2017-Nov-17 14:00N 29°49' W 092°18'2 4.1
2017-Nov-17 13:30N 29°48' W 092°16'1 1.9
2017-Nov-17 13:00N 29°48' W 092°15'0 0.1
2017-Nov-17 12:30N 29°48' W 092°15'0 0.0
2017-Nov-17 12:00N 29°48' W 092°15'0 0.0
2017-Nov-17 11:30N 29°48' W 092°15'0 0.0
2017-Nov-17 11:00N 29°48' W 092°15'0 0.0
2017-Nov-17 10:30N 29°48' W 092°15'0 0.0
2017-Nov-17 10:00N 29°48' W 092°15'0 0.0
2017-Nov-17 09:30N 29°48' W 092°15'0 0.0
2017-Nov-17 09:00N 29°48' W 092°15'0 0.0
2017-Nov-17 08:30N 29°48' W 092°15'0 0.0
2017-Nov-17 08:00N 29°48' W 092°15'0 0.0
2017-Nov-17 07:30N 29°48' W 092°15'0 0.0
2017-Nov-17 07:00N 29°48' W 092°15'0 0.0
2017-Nov-17 06:30N 29°48' W 092°15'0 0.0
2017-Nov-17 06:00N 29°48' W 092°15'0 0.0
2017-Nov-17 05:30N 29°48' W 092°15'0 0.3
2017-Nov-17 05:00N 29°48' W 092°14'1 1.5
2017-Nov-17 04:30N 29°48' W 092°14'1 2.6
2017-Nov-17 04:00N 29°47' W 092°12'0 0.6
2017-Nov-17 03:30N 29°47' W 092°12'1 2.0
2017-Nov-17 03:00N 29°47' W 092°11'0 0.8
2017-Nov-17 02:30N 29°47' W 092°10'2 4.4
2017-Nov-17 02:00N 29°47' W 092°08'2 4.7
2017-Nov-17 01:30N 29°48' W 092°06'2 4.6
2017-Nov-17 01:00N 29°49' W 092°03'3 5.1
2017-Nov-17 00:30N 29°50' W 092°00'3 5.0
2017-Nov-17 00:00N 29°50' W 091°57'2 4.5
2017-Nov-16 23:30N 29°51' W 091°55'  

Dump ship's entire track history